Time;durP1;ratioP1;P1;durP2;ratioP2;P2;SDS_P1;SDS_P2;PMS_P1;PMS_P2;Temp;Humidity;BMP_temperature;BMP_pressure;BME280_temperature;BME280_humidity;BME280_pressure;Samples;Min_cycle;Max_cycle;Signal;HPM_P1;HPM_P2
2023/07/31 00:02:10;;;;;;;;;;;23.50;62.70;;;;;;5075271;28;20210;-72
2023/07/31 00:04:37;;;;;;;;;;;23.60;57.20;;;;;;5093087;28;20597;-70
2023/07/31 00:07:06;;;;;;;;;;;23.40;54.20;;;;;;5075144;28;20538;-72
2023/07/31 00:09:33;;;;;;;;;;;23.20;55.90;;;;;;5093481;28;20187;-69
2023/07/31 00:12:00;;;;;;;;;;;23.40;50.30;;;;;;5092754;28;20169;-72
2023/07/31 00:14:26;;;;;;;;;;;23.60;50.30;;;;;;5092956;28;20144;-71
2023/07/31 00:16:53;;;;;;;;;;;23.90;50.80;;;;;;5093119;28;20139;-69
2023/07/31 00:19:20;;;;;;;;;;;24.10;47.70;;;;;;5093136;28;20136;-72
2023/07/31 00:21:46;;;;;;;;;;;23.60;48.80;;;;;;5092860;28;20169;-70
2023/07/31 00:24:13;;;;;;;;;;;23.60;48.80;;;;;;5092920;28;20145;-70
2023/07/31 00:26:39;;;;;;;;;;;23.80;46.60;;;;;;5092771;28;20564;-70
2023/07/31 00:29:06;;;;;;;;;;;23.90;49.30;;;;;;5092589;28;20179;-70
2023/07/31 00:31:33;;;;;;;;;;;23.60;49.50;;;;;;5093108;28;20173;-71
2023/07/31 00:33:59;;;;;;;;;;;23.80;48.80;;;;;;5093183;28;20533;-69
2023/07/31 00:36:26;;;;;;;;;;;24.10;49.70;;;;;;5092841;28;20605;-73
2023/07/31 00:38:53;;;;;;;;;;;23.90;48.50;;;;;;5094650;28;20611;-70
2023/07/31 00:41:19;;;;;;;;;;;23.70;49.10;;;;;;5094233;28;20252;-73
2023/07/31 00:43:46;;;;;;;;;;;24.00;49.90;;;;;;5093863;28;20132;-70
2023/07/31 00:46:13;;;;;;;;;;;24.40;45.70;;;;;;5094314;28;20183;-71
2023/07/31 00:48:39;;;;;;;;;;;24.20;43.70;;;;;;5094699;28;20135;-71
2023/07/31 00:51:07;;;;;;;;;;;24.10;44.10;;;;;;5094710;28;20136;-70
2023/07/31 00:53:34;;;;;;;;;;;24.10;41.30;;;;;;5094140;28;20154;-70
2023/07/31 00:56:01;;;;;;;;;;;24.40;42.40;;;;;;5075933;28;20223;-73
2023/07/31 00:58:27;;;;;;;;;;;24.50;41.80;;;;;;5091852;28;20638;-70
2023/07/31 01:00:54;;;;;;;;;;;24.00;41.30;;;;;;5084393;28;20135;-68
2023/07/31 01:03:21;;;;;;;;;;;24.00;41.10;;;;;;5081998;28;20236;-72
2023/07/31 01:05:53;;;;;;;;;;;24.40;41.30;;;;;;5083520;28;20129;-69
2023/07/31 01:08:33;;;;;;;;;;;25.20;39.90;;;;;;5084038;28;20183;-71
2023/07/31 01:11:10;;;;;;;;;;;24.80;38.30;;;;;;5083886;28;20174;-72
2023/07/31 01:13:37;;;;;;;;;;;24.50;38.20;;;;;;5084046;28;20176;-73
2023/07/31 01:16:03;;;;;;;;;;;24.90;39.60;;;;;;5066061;28;20138;-68
2023/07/31 01:18:30;;;;;;;;;;;25.00;38.00;;;;;;5082350;28;20212;-69
2023/07/31 01:21:04;;;;;;;;;;;25.40;36.90;;;;;;5081638;28;20603;-69
2023/07/31 01:23:49;;;;;;;;;;;25.70;34.70;;;;;;5083066;28;20162;-74
2023/07/31 01:26:28;;;;;;;;;;;25.60;34.90;;;;;;5083165;28;20283;-70
2023/07/31 01:29:03;;;;;;;;;;;25.50;32.30;;;;;;5083222;28;20662;-71
2023/07/31 01:31:30;;;;;;;;;;;25.20;33.20;;;;;;5093810;28;20601;-70
2023/07/31 01:34:00;;;;;;;;;;;25.10;34.50;;;;;;5092861;28;20175;-73
2023/07/31 01:36:27;;;;;;;;;;;25.40;34.60;;;;;;5086143;28;20645;-70
2023/07/31 01:38:58;;;;;;;;;;;25.80;32.90;;;;;;5093493;28;20152;-73
2023/07/31 01:41:24;;;;;;;;;;;25.60;31.20;;;;;;5092487;28;20196;-71
2023/07/31 01:46:54;;;;;;;;;;;25.20;33.80;;;;;;5071508;28;20200;-72
2023/07/31 01:49:21;;;;;;;;;;;25.40;32.50;;;;;;5073477;28;20191;-74
2023/07/31 01:51:47;;;;;;;;;;;25.90;32.30;;;;;;5074079;28;20172;-72
2023/07/31 01:54:14;;;;;;;;;;;26.00;31.70;;;;;;5075284;28;20148;-73
2023/07/31 01:56:41;;;;;;;;;;;25.60;30.20;;;;;;5090411;28;20156;-73
2023/07/31 01:59:07;;;;;;;;;;;26.20;31.20;;;;;;5093001;28;20175;-74
2023/07/31 02:01:34;;;;;;;;;;;26.00;30.60;;;;;;5092210;28;20178;-70
2023/07/31 02:04:01;;;;;;;;;;;25.50;29.10;;;;;;5091638;28;20147;-71
2023/07/31 02:06:28;;;;;;;;;;;25.50;28.70;;;;;;5092189;28;20180;-68
2023/07/31 02:08:54;;;;;;;;;;;25.80;28.70;;;;;;5092442;28;20199;-74
2023/07/31 02:11:21;;;;;;;;;;;26.40;26.90;;;;;;5093149;28;20505;-72
2023/07/31 02:13:48;;;;;;;;;;;26.90;28.40;;;;;;5088973;28;20172;-71
2023/07/31 02:16:14;;;;;;;;;;;26.30;25.80;;;;;;5092261;28;20600;-70
2023/07/31 02:18:41;;;;;;;;;;;25.60;27.00;;;;;;5074546;28;20237;-69
2023/07/31 02:21:08;;;;;;;;;;;25.50;28.20;;;;;;5090512;28;20164;-73
2023/07/31 02:23:34;;;;;;;;;;;25.90;27.40;;;;;;5085493;28;20213;-69
2023/07/31 02:26:01;;;;;;;;;;;26.30;29.00;;;;;;5082146;28;20176;-72
2023/07/31 02:28:28;;;;;;;;;;;26.60;26.10;;;;;;5093233;28;20355;-73
2023/07/31 02:30:54;;;;;;;;;;;26.90;26.10;;;;;;5092463;28;20223;-71
2023/07/31 02:33:21;;;;;;;;;;;26.50;26.00;;;;;;5093278;28;20159;-70
2023/07/31 02:35:48;;;;;;;;;;;26.20;26.40;;;;;;5092711;28;20204;-74
2023/07/31 02:38:14;;;;;;;;;;;26.40;25.40;;;;;;5093016;28;20155;-75
2023/07/31 02:40:41;;;;;;;;;;;25.90;25.90;;;;;;5071977;28;20209;-72
2023/07/31 02:43:08;;;;;;;;;;;26.20;24.80;;;;;;5091898;28;20181;-73
2023/07/31 02:45:35;;;;;;;;;;;26.20;26.00;;;;;;5091404;28;20182;-76
2023/07/31 02:48:02;;;;;;;;;;;26.50;26.00;;;;;;5070376;28;20243;-73
2023/07/31 02:50:28;;;;;;;;;;;26.80;26.10;;;;;;5073270;28;20199;-73
2023/07/31 02:52:55;;;;;;;;;;;27.30;25.10;;;;;;5071350;28;20148;-73
2023/07/31 02:55:22;;;;;;;;;;;26.60;24.60;;;;;;5078361;28;20216;-74
2023/07/31 02:57:48;;;;;;;;;;;26.40;24.40;;;;;;5091533;28;20220;-75
2023/07/31 03:00:15;;;;;;;;;;;26.70;24.90;;;;;;5091562;28;20626;-73
2023/07/31 03:02:42;;;;;;;;;;;26.90;25.10;;;;;;5091070;28;20702;-73
2023/07/31 03:05:08;;;;;;;;;;;26.90;23.10;;;;;;5090225;28;20573;-70
2023/07/31 03:07:35;;;;;;;;;;;27.20;23.20;;;;;;5090823;28;20173;-74
2023/07/31 03:10:02;;;;;;;;;;;26.70;22.70;;;;;;5090664;28;20614;-71
2023/07/31 03:12:28;;;;;;;;;;;26.40;23.20;;;;;;5089967;28;20181;-75
2023/07/31 03:14:55;;;;;;;;;;;26.60;22.60;;;;;;5078111;28;20199;-75
2023/07/31 03:17:22;;;;;;;;;;;26.60;22.50;;;;;;5085863;28;20143;-74
2023/07/31 03:19:48;;;;;;;;;;;26.60;22.70;;;;;;5089522;28;20192;-75
2023/07/31 03:22:15;;;;;;;;;;;26.80;23.20;;;;;;5090990;28;20235;-74
2023/07/31 03:24:42;;;;;;;;;;;26.50;22.50;;;;;;5083403;28;20569;-74
2023/07/31 03:27:08;;;;;;;;;;;26.80;23.10;;;;;;5090704;28;20178;-73
2023/07/31 03:29:35;;;;;;;;;;;26.50;22.20;;;;;;5091021;28;20294;-72
2023/07/31 03:32:02;;;;;;;;;;;26.40;22.50;;;;;;5087978;28;20170;-74
2023/07/31 03:34:29;;;;;;;;;;;26.30;22.20;;;;;;5094781;28;20190;-75
2023/07/31 03:36:55;;;;;;;;;;;26.40;21.70;;;;;;5094830;28;20145;-73
2023/07/31 03:39:22;;;;;;;;;;;26.20;22.70;;;;;;5094325;28;20167;-73
2023/07/31 03:41:49;;;;;;;;;;;25.80;23.20;;;;;;5089988;28;20199;-76
2023/07/31 03:44:15;;;;;;;;;;;26.00;22.60;;;;;;5092664;28;20235;-75
2023/07/31 03:46:43;;;;;;;;;;;26.10;22.30;;;;;;5093314;28;20310;-75
2023/07/31 03:49:09;;;;;;;;;;;26.60;21.60;;;;;;5083038;28;20615;-75
2023/07/31 03:51:36;;;;;;;;;;;26.80;23.00;;;;;;5094630;28;20203;-76
2023/07/31 03:54:03;;;;;;;;;;;27.20;23.00;;;;;;5094258;28;20174;-73
2023/07/31 03:56:29;;;;;;;;;;;27.40;20.20;;;;;;5094488;28;20226;-73
2023/07/31 03:59:11;;;;;;;;;;;27.40;20.10;;;;;;5094118;28;20151;-75
2023/07/31 04:01:56;;;;;;;;;;;26.80;20.60;;;;;;5093838;28;20661;-71
2023/07/31 04:04:23;;;;;;;;;;;26.50;21.20;;;;;;5093984;28;20185;-73
2023/07/31 04:06:49;;;;;;;;;;;26.40;19.30;;;;;;5094355;28;20190;-72
2023/07/31 04:09:16;;;;;;;;;;;26.80;19.40;;;;;;5094085;28;20214;-73
2023/07/31 04:11:43;;;;;;;;;;;27.00;19.90;;;;;;5093849;28;20168;-74
2023/07/31 04:14:09;;;;;;;;;;;27.00;19.30;;;;;;5094187;28;20178;-74
2023/07/31 04:16:36;;;;;;;;;;;27.20;18.10;;;;;;5093625;28;20162;-72
2023/07/31 04:19:03;;;;;;;;;;;27.00;17.80;;;;;;5093967;28;20283;-70
2023/07/31 04:21:30;;;;;;;;;;;27.10;19.00;;;;;;5094023;28;20163;-69
2023/07/31 04:23:58;;;;;;;;;;;26.50;18.70;;;;;;5093288;28;20189;-70
2023/07/31 04:26:25;;;;;;;;;;;26.50;19.30;;;;;;5093934;28;20199;-72
2023/07/31 04:28:51;;;;;;;;;;;26.50;19.20;;;;;;5093805;28;20557;-74
2023/07/31 04:31:18;;;;;;;;;;;26.40;19.30;;;;;;5093138;28;20271;-71
2023/07/31 04:33:45;;;;;;;;;;;26.10;19.00;;;;;;5093181;28;20205;-72
2023/07/31 04:36:12;;;;;;;;;;;25.70;18.60;;;;;;5093884;28;20149;-70
2023/07/31 04:38:38;;;;;;;;;;;25.80;19.40;;;;;;5092820;28;20204;-73
2023/07/31 04:41:05;;;;;;;;;;;25.80;19.40;;;;;;5093557;28;20259;-71
2023/07/31 04:43:32;;;;;;;;;;;25.90;19.10;;;;;;5093125;28;20182;-70
2023/07/31 04:45:58;;;;;;;;;;;25.70;17.90;;;;;;5094078;28;20159;-69
2023/07/31 04:48:25;;;;;;;;;;;26.00;18.40;;;;;;5093967;28;20202;-68
2023/07/31 04:50:52;;;;;;;;;;;25.90;18.10;;;;;;5095275;28;20210;-73
2023/07/31 04:53:19;;;;;;;;;;;25.70;19.10;;;;;;5094580;28;20222;-72
2023/07/31 04:55:46;;;;;;;;;;;25.50;19.70;;;;;;5093724;28;20186;-72
2023/07/31 04:58:12;;;;;;;;;;;25.30;19.40;;;;;;5094820;28;20145;-74
2023/07/31 05:00:39;;;;;;;;;;;25.60;20.20;;;;;;5094770;28;20202;-73
2023/07/31 05:03:06;;;;;;;;;;;25.50;18.70;;;;;;5094135;28;20180;-71
2023/07/31 05:05:33;;;;;;;;;;;25.60;19.00;;;;;;5094700;28;20169;-71
2023/07/31 05:08:00;;;;;;;;;;;25.70;18.60;;;;;;5094546;28;20659;-74
2023/07/31 05:10:26;;;;;;;;;;;25.70;18.90;;;;;;5094847;28;20301;-69
2023/07/31 05:12:53;;;;;;;;;;;25.60;19.10;;;;;;5094339;28;20163;-71
2023/07/31 05:15:20;;;;;;;;;;;25.70;18.80;;;;;;5093934;28;20192;-69
2023/07/31 05:17:46;;;;;;;;;;;25.70;18.70;;;;;;5094071;28;20519;-69
2023/07/31 05:20:14;;;;;;;;;;;25.60;19.00;;;;;;5094539;28;20569;-71
2023/07/31 05:22:41;;;;;;;;;;;25.50;19.70;;;;;;5093931;28;20169;-75
2023/07/31 05:25:08;;;;;;;;;;;25.60;19.70;;;;;;5094107;28;20182;-70
2023/07/31 05:27:35;;;;;;;;;;;25.50;19.70;;;;;;5094279;28;20632;-74
2023/07/31 05:30:02;;;;;;;;;;;25.40;19.20;;;;;;5093924;28;20212;-68
2023/07/31 05:32:28;;;;;;;;;;;25.50;20.00;;;;;;5093333;28;20177;-73
2023/07/31 05:34:55;;;;;;;;;;;25.20;18.60;;;;;;5069699;28;20229;-71
2023/07/31 05:37:22;;;;;;;;;;;24.80;19.00;;;;;;5091827;28;20183;-73
2023/07/31 05:39:52;;;;;;;;;;;24.40;18.80;;;;;;5092514;28;20214;-70
2023/07/31 05:42:21;;;;;;;;;;;24.20;19.90;;;;;;5082544;28;20179;-71
2023/07/31 05:44:48;;;;;;;;;;;23.80;19.20;;;;;;5092107;28;20716;-75
2023/07/31 05:47:14;;;;;;;;;;;23.70;19.50;;;;;;5091442;28;20194;-71
2023/07/31 05:49:41;;;;;;;;;;;23.60;22.10;;;;;;5090757;28;20183;-73
2023/07/31 05:52:08;;;;;;;;;;;23.30;22.10;;;;;;5091272;28;20139;-70
2023/07/31 05:54:34;;;;;;;;;;;23.20;22.20;;;;;;5091254;28;20154;-70
2023/07/31 05:57:01;;;;;;;;;;;23.00;21.80;;;;;;5090601;28;20203;-73
2023/07/31 05:59:28;;;;;;;;;;;22.80;22.10;;;;;;5091012;28;20171;-71
2023/07/31 06:01:54;;;;;;;;;;;22.70;22.40;;;;;;5091138;28;20168;-70
2023/07/31 06:04:21;;;;;;;;;;;22.50;22.10;;;;;;5081870;28;20219;-72
2023/07/31 06:06:48;;;;;;;;;;;22.40;23.70;;;;;;5082660;28;20157;-70
2023/07/31 06:09:14;;;;;;;;;;;22.50;23.90;;;;;;5090581;28;20191;-73
2023/07/31 06:11:41;;;;;;;;;;;22.60;23.80;;;;;;5090694;28;20156;-70
2023/07/31 06:14:08;;;;;;;;;;;22.50;23.90;;;;;;5091138;28;20187;-69
2023/07/31 06:16:34;;;;;;;;;;;22.50;24.30;;;;;;5091138;28;20215;-69
2023/07/31 06:19:01;;;;;;;;;;;22.20;24.10;;;;;;5090988;28;20507;-70
2023/07/31 06:21:28;;;;;;;;;;;22.00;23.90;;;;;;5090077;28;20634;-73
2023/07/31 06:23:55;;;;;;;;;;;21.90;24.90;;;;;;5091694;28;20125;-73
2023/07/31 06:26:21;;;;;;;;;;;21.80;25.30;;;;;;5090745;28;20589;-70
2023/07/31 06:28:48;;;;;;;;;;;21.70;25.70;;;;;;5072563;28;20154;-73
2023/07/31 06:31:15;;;;;;;;;;;21.50;26.10;;;;;;5091126;28;20250;-70
2023/07/31 06:33:41;;;;;;;;;;;21.40;26.40;;;;;;5091493;28;20185;-74
2023/07/31 06:36:08;;;;;;;;;;;21.50;26.70;;;;;;5090721;28;20168;-71
2023/07/31 06:38:35;;;;;;;;;;;21.50;26.90;;;;;;5091478;28;20186;-69
2023/07/31 06:41:01;;;;;;;;;;;21.40;27.60;;;;;;5091351;28;20179;-70
2023/07/31 06:43:28;;;;;;;;;;;21.40;28.10;;;;;;5091633;28;20221;-72
2023/07/31 06:45:55;;;;;;;;;;;21.30;28.40;;;;;;5073032;28;20161;-71
2023/07/31 06:48:21;;;;;;;;;;;21.20;29.10;;;;;;5090985;28;20215;-70
2023/07/31 06:50:48;;;;;;;;;;;21.10;29.60;;;;;;5079725;28;20271;-71
2023/07/31 06:53:15;;;;;;;;;;;21.00;30.20;;;;;;5090123;28;20210;-71
2023/07/31 06:55:41;;;;;;;;;;;20.90;31.30;;;;;;5091664;28;20161;-74
2023/07/31 06:58:08;;;;;;;;;;;20.70;32.80;;;;;;5090687;28;20145;-70
2023/07/31 07:00:35;;;;;;;;;;;20.50;33.70;;;;;;5091035;28;20191;-70
2023/07/31 07:03:02;;;;;;;;;;;20.30;37.70;;;;;;5090692;28;20622;-71
2023/07/31 07:05:28;;;;;;;;;;;20.10;38.90;;;;;;5090785;28;20154;-71
2023/07/31 07:07:55;;;;;;;;;;;19.90;41.70;;;;;;5096669;28;20667;-71
2023/07/31 07:10:22;;;;;;;;;;;19.70;44.80;;;;;;5096211;28;20201;-70
2023/07/31 07:12:49;;;;;;;;;;;19.40;47.90;;;;;;5096236;28;20641;-72
2023/07/31 07:15:16;;;;;;;;;;;19.30;52.80;;;;;;5096769;28;20189;-73
2023/07/31 07:17:42;;;;;;;;;;;19.10;55.00;;;;;;5096328;28;20617;-74
2023/07/31 07:20:09;;;;;;;;;;;19.00;59.80;;;;;;5096444;28;19981;-74
2023/07/31 07:22:36;;;;;;;;;;;18.80;58.50;;;;;;5096479;28;20140;-73
2023/07/31 07:25:03;;;;;;;;;;;18.80;62.80;;;;;;5095268;28;20168;-75
2023/07/31 07:27:30;;;;;;;;;;;18.60;71.20;;;;;;5095359;28;25065;-71
2023/07/31 07:29:56;;;;;;;;;;;18.40;76.50;;;;;;5096669;28;20172;-72
2023/07/31 07:32:23;;;;;;;;;;;18.30;77.00;;;;;;5095804;28;20112;-70
2023/07/31 07:34:50;;;;;;;;;;;18.20;79.90;;;;;;5073835;28;20163;-72
2023/07/31 07:37:17;;;;;;;;;;;18.10;88.70;;;;;;5094371;28;20364;-73
2023/07/31 07:39:43;;;;;;;;;;;17.90;93.30;;;;;;5075915;28;20541;-69
2023/07/31 07:42:10;;;;;;;;;;;17.80;96.10;;;;;;5093413;28;19986;-72
2023/07/31 07:44:37;;;;;;;;;;;17.60;99.30;;;;;;5093772;28;20627;-73
2023/07/31 07:47:05;;;;;;;;;;;17.50;99.90;;;;;;5093602;28;20077;-72
2023/07/31 07:49:33;;;;;;;;;;;17.40;99.90;;;;;;5093884;28;19995;-70
2023/07/31 07:51:59;;;;;;;;;;;17.30;99.90;;;;;;5094129;28;20176;-73
2023/07/31 07:54:26;;;;;;;;;;;17.20;99.90;;;;;;5092513;28;19972;-71
2023/07/31 07:56:53;;;;;;;;;;;17.10;99.90;;;;;;5093397;28;20033;-72
2023/07/31 07:59:19;;;;;;;;;;;17.00;99.90;;;;;;5093869;28;25062;-74
2023/07/31 08:01:46;;;;;;;;;;;16.80;99.90;;;;;;5093833;28;20556;-74
2023/07/31 08:04:16;;;;;;;;;;;16.60;99.90;;;;;;5092914;28;19967;-74
2023/07/31 08:06:42;;;;;;;;;;;16.50;99.90;;;;;;5094017;28;20487;-73
2023/07/31 08:09:09;;;;;;;;;;;16.40;99.90;;;;;;5093530;28;25053;-70
2023/07/31 08:11:36;;;;;;;;;;;16.30;99.90;;;;;;5093450;28;25091;-70
2023/07/31 08:14:02;;;;;;;;;;;16.30;99.90;;;;;;5087648;28;20470;-71
2023/07/31 08:16:29;;;;;;;;;;;16.30;99.90;;;;;;5084874;28;25091;-72
2023/07/31 08:18:56;;;;;;;;;;;16.20;99.90;;;;;;5081444;28;25114;-71
2023/07/31 08:21:23;;;;;;;;;;;16.10;99.90;;;;;;5084137;28;25076;-71
2023/07/31 08:23:50;;;;;;;;;;;16.10;99.90;;;;;;5082116;28;25082;-72
2023/07/31 08:26:17;;;;;;;;;;;16.00;99.90;;;;;;5084038;28;19968;-73
2023/07/31 08:28:44;;;;;;;;;;;15.90;99.90;;;;;;5082372;28;25099;-73
2023/07/31 08:31:11;;;;;;;;;;;15.80;99.90;;;;;;5084545;28;19992;-72
2023/07/31 08:33:38;;;;;;;;;;;15.70;99.90;;;;;;5088764;28;20107;-72
2023/07/31 08:36:05;;;;;;;;;;;15.60;99.90;;;;;;5095568;28;25147;-73
2023/07/31 08:38:31;;;;;;;;;;;15.60;99.90;;;;;;5095369;28;25128;-69
2023/07/31 08:40:58;;;;;;;;;;;15.50;99.90;;;;;;5094650;28;19959;-69
2023/07/31 08:43:28;;;;;;;;;;;15.40;99.90;;;;;;5094800;28;19985;-73
2023/07/31 08:45:54;;;;;;;;;;;15.30;99.90;;;;;;5095298;28;25095;-76
2023/07/31 08:48:22;;;;;;;;;;;15.30;99.90;;;;;;5094489;28;25067;-73
2023/07/31 08:50:49;;;;;;;;;;;15.20;99.90;;;;;;5094660;28;25073;-71
2023/07/31 08:53:17;;;;;;;;;;;15.10;99.90;;;;;;5094591;28;24048;-70
2023/07/31 08:55:45;;;;;;;;;;;15.00;99.90;;;;;;5094570;28;19959;-72
2023/07/31 08:58:14;;;;;;;;;;;15.00;99.90;;;;;;5094422;28;25147;-75
2023/07/31 09:00:41;;;;;;;;;;;14.90;99.90;;;;;;5094758;28;20051;-73
2023/07/31 09:03:15;;;;;;;;;;;14.90;99.90;;;;;;5100376;28;20021;-73
2023/07/31 09:05:45;;;;;;;;;;;15.00;99.90;;;;;;5100115;28;19911;-72
2023/07/31 09:08:18;;;;;;;;;;;14.90;99.90;;;;;;5097435;28;19904;-75
2023/07/31 09:10:51;;;;;;;;;;;14.90;99.90;;;;;;5074585;28;24066;-76
2023/07/31 09:13:18;;;;;;;;;;;14.90;99.90;;;;;;5073770;28;19989;-74
2023/07/31 09:15:49;;;;;;;;;;;14.90;99.90;;;;;;5073537;28;19912;-76
2023/07/31 09:18:19;;;;;;;;;;;14.90;99.90;;;;;;5074128;28;19916;-72
2023/07/31 09:20:45;;;;;;;;;;;14.80;99.90;;;;;;5074289;28;19911;-73
2023/07/31 09:23:13;;;;;;;;;;;14.70;99.90;;;;;;5073990;28;19904;-72
2023/07/31 09:25:40;;;;;;;;;;;14.70;99.90;;;;;;5073478;28;25120;-74
2023/07/31 09:28:11;;;;;;;;;;;14.60;99.90;;;;;;5073387;28;19912;-70
2023/07/31 09:30:50;;;;;;;;;;;14.50;99.90;;;;;;5073546;28;19918;-73
2023/07/31 09:33:21;;;;;;;;;;;14.50;99.90;;;;;;5073710;28;19908;-71
2023/07/31 09:35:50;;;;;;;;;;;14.40;99.90;;;;;;5073337;28;19940;-74
2023/07/31 09:38:17;;;;;;;;;;;14.30;99.90;;;;;;5073599;28;24050;-73
2023/07/31 09:40:45;;;;;;;;;;;14.20;99.90;;;;;;5073482;28;20366;-71
2023/07/31 09:43:13;;;;;;;;;;;14.10;99.90;;;;;;5073271;28;24074;-74
2023/07/31 09:45:43;;;;;;;;;;;14.00;99.90;;;;;;5073458;28;20377;-73
2023/07/31 09:48:10;;;;;;;;;;;14.00;99.90;;;;;;5072820;28;19920;-71
2023/07/31 09:50:40;;;;;;;;;;;13.90;99.90;;;;;;5073082;28;19916;-71
2023/07/31 09:53:07;;;;;;;;;;;13.80;99.90;;;;;;5072652;28;24176;-70
2023/07/31 09:55:34;;;;;;;;;;;13.70;99.90;;;;;;5072948;28;19922;-69
2023/07/31 09:58:04;;;;;;;;;;;13.70;99.90;;;;;;5072848;28;20034;-69
2023/07/31 10:00:31;;;;;;;;;;;13.60;99.90;;;;;;5072402;28;20368;-70
2023/07/31 10:03:05;;;;;;;;;;;13.50;99.90;;;;;;5072684;28;19910;-70
2023/07/31 10:05:36;;;;;;;;;;;13.40;99.90;;;;;;5072941;28;19908;-71
2023/07/31 10:08:03;;;;;;;;;;;13.30;99.90;;;;;;5072297;28;19912;-70
2023/07/31 10:10:30;;;;;;;;;;;13.30;99.90;;;;;;5072933;28;19916;-71
2023/07/31 10:12:57;;;;;;;;;;;13.20;99.90;;;;;;5077194;28;24080;-68
2023/07/31 10:15:28;;;;;;;;;;;13.10;99.90;;;;;;5083309;28;19905;-69
2023/07/31 10:17:55;;;;;;;;;;;13.10;99.90;;;;;;5076615;28;19921;-69
2023/07/31 10:20:22;;;;;;;;;;;13.00;99.90;;;;;;5073817;28;19916;-71
2023/07/31 10:22:49;;;;;;;;;;;13.00;99.90;;;;;;5056125;28;24135;-70
2023/07/31 10:25:20;;;;;;;;;;;13.00;99.90;;;;;;5072415;28;19988;-69
2023/07/31 10:27:47;;;;;;;;;;;13.20;99.90;;;;;;5072640;28;19947;-70
2023/07/31 10:30:18;;;;;;;;;;;13.60;99.90;;;;;;5072510;28;25136;-69
2023/07/31 10:32:45;;;;;;;;;;;14.10;99.90;;;;;;5072388;28;24074;-71
2023/07/31 10:35:15;;;;;;;;;;;14.70;99.90;;;;;;5073035;28;24065;-75
2023/07/31 10:37:42;;;;;;;;;;;15.10;99.90;;;;;;5072675;28;24105;-71
2023/07/31 10:40:14;;;;;;;;;;;15.20;99.90;;;;;;5072342;28;24068;-71
2023/07/31 10:42:49;;;;;;;;;;;15.10;99.90;;;;;;5072976;28;19904;-71
2023/07/31 10:45:26;;;;;;;;;;;15.00;99.90;;;;;;5072521;28;19961;-75
2023/07/31 10:47:59;;;;;;;;;;;14.90;99.90;;;;;;5072929;28;20002;-72
2023/07/31 10:50:26;;;;;;;;;;;14.70;99.90;;;;;;5071722;28;19991;-72
2023/07/31 10:53:16;;;;;;;;;;;14.40;99.90;;;;;;5074731;28;19940;-71
2023/07/31 10:55:45;;;;;;;;;;;14.10;99.90;;;;;;5091750;28;24051;-74
2023/07/31 10:58:13;;;;;;;;;;;13.80;99.90;;;;;;5092388;28;19959;-73
2023/07/31 11:00:43;;;;;;;;;;;13.50;99.90;;;;;;5092714;28;20052;-70
2023/07/31 11:03:11;;;;;;;;;;;13.40;99.90;;;;;;5092156;28;20337;-69
2023/07/31 11:05:46;;;;;;;;;;;13.20;99.90;;;;;;5092786;28;24072;-69
2023/07/31 11:08:14;;;;;;;;;;;13.00;99.90;;;;;;5092306;28;24158;-71
2023/07/31 11:10:41;;;;;;;;;;;12.90;99.90;;;;;;5074291;28;20427;-72
2023/07/31 11:13:08;;;;;;;;;;;12.80;99.90;;;;;;5092598;28;19911;-73
2023/07/31 11:15:34;;;;;;;;;;;12.80;99.90;;;;;;5092072;28;24070;-74
2023/07/31 11:18:08;;;;;;;;;;;12.70;99.90;;;;;;5091651;28;25020;-74
2023/07/31 11:20:36;;;;;;;;;;;12.60;99.90;;;;;;5092417;28;19911;-74
2023/07/31 11:23:03;;;;;;;;;;;12.50;99.90;;;;;;5092158;28;19950;-74
2023/07/31 11:25:33;;;;;;;;;;;12.40;99.90;;;;;;5092260;28;20036;-71
2023/07/31 11:28:11;;;;;;;;;;;12.30;99.90;;;;;;5092211;28;19914;-74
2023/07/31 11:30:38;;;;;;;;;;;12.30;99.90;;;;;;5084213;28;20002;-75
2023/07/31 11:33:05;;;;;;;;;;;12.20;99.90;;;;;;5072846;28;20027;-75
2023/07/31 11:35:43;;;;;;;;;;;12.20;99.90;;;;;;5072095;28;20000;-75
2023/07/31 11:38:10;;;;;;;;;;;12.20;99.90;;;;;;5071511;28;20412;-75
2023/07/31 11:40:44;;;;;;;;;;;12.10;99.90;;;;;;5072181;28;19947;-75
2023/07/31 11:43:17;;;;;;;;;;;12.00;99.90;;;;;;5072044;28;24086;-74
2023/07/31 11:45:51;;;;;;;;;;;11.90;99.90;;;;;;5072133;28;19908;-74
2023/07/31 11:48:27;;;;;;;;;;;11.90;99.90;;;;;;5071626;28;19917;-74
2023/07/31 11:51:01;;;;;;;;;;;11.80;99.90;;;;;;5072155;28;24074;-75
2023/07/31 11:53:30;;;;;;;;;;;11.80;99.90;;;;;;5074668;28;19950;-72
2023/07/31 11:55:59;;;;;;;;;;;11.70;99.90;;;;;;5075534;28;25157;-75
2023/07/31 11:58:26;;;;;;;;;;;11.70;99.90;;;;;;5057950;28;19916;-75
2023/07/31 12:00:53;;;;;;;;;;;11.60;99.90;;;;;;5075897;28;20342;-74
2023/07/31 12:03:20;;;;;;;;;;;11.50;99.90;;;;;;5075419;28;24070;-74
2023/07/31 12:05:48;;;;;;;;;;;11.40;99.90;;;;;;5075658;28;19904;-74
2023/07/31 12:08:16;;;;;;;;;;;11.30;99.90;;;;;;5057717;28;19926;-75
2023/07/31 12:10:44;;;;;;;;;;;11.20;99.90;;;;;;5075965;28;24062;-75
2023/07/31 12:13:14;;;;;;;;;;;11.40;99.90;;;;;;5074993;28;19912;-73
2023/07/31 12:15:42;;;;;;;;;;;11.40;99.90;;;;;;5075364;28;19911;-74
2023/07/31 12:18:13;;;;;;;;;;;11.50;99.90;;;;;;5075386;28;20006;-74
2023/07/31 12:20:49;;;;;;;;;;;11.50;99.90;;;;;;5074942;28;19916;-74
2023/07/31 12:23:38;;;;;;;;;;;11.60;99.90;;;;;;5075762;28;19904;-71
2023/07/31 12:26:12;;;;;;;;;;;11.80;99.90;;;;;;5076941;28;20023;-74
2023/07/31 12:28:46;;;;;;;;;;;11.90;99.90;;;;;;5061489;28;19912;-73
2023/07/31 12:31:12;;;;;;;;;;;12.00;99.90;;;;;;5062524;28;19920;-76
2023/07/31 12:33:40;;;;;;;;;;;12.20;99.90;;;;;;5062163;28;19908;-74
2023/07/31 12:36:11;;;;;;;;;;;12.30;99.90;;;;;;5079629;28;19948;-75
2023/07/31 12:38:38;;;;;;;;;;;12.50;99.90;;;;;;5058984;28;20377;-74
2023/07/31 12:41:06;;;;;;;;;;;12.60;99.90;;;;;;5090514;28;20246;-76
2023/07/31 12:43:34;;;;;;;;;;;12.70;99.90;;;;;;5095433;28;19908;-73
2023/07/31 12:46:00;;;;;;;;;;;12.60;99.90;;;;;;5094689;28;24071;-73
2023/07/31 12:48:27;;;;;;;;;;;12.60;99.90;;;;;;5094080;28;19923;-73
2023/07/31 12:50:54;;;;;;;;;;;12.60;99.90;;;;;;5094496;28;19916;-74
2023/07/31 12:53:21;;;;;;;;;;;12.50;99.90;;;;;;5075621;28;24112;-74
2023/07/31 12:55:47;;;;;;;;;;;12.30;99.90;;;;;;5075666;28;24091;-75
2023/07/31 12:58:14;;;;;;;;;;;12.20;99.90;;;;;;5093977;28;25133;-73
2023/07/31 13:00:41;;;;;;;;;;;12.10;99.90;;;;;;5094125;28;19982;-73
2023/07/31 13:03:07;;;;;;;;;;;12.20;99.90;;;;;;5093704;28;19915;-73
2023/07/31 13:05:34;;;;;;;;;;;12.30;99.90;;;;;;5093514;28;19914;-73
2023/07/31 13:08:01;;;;;;;;;;;12.30;99.90;;;;;;5093715;28;19999;-73
2023/07/31 13:10:28;;;;;;;;;;;12.50;99.90;;;;;;5090829;28;20357;-74
2023/07/31 13:12:55;;;;;;;;;;;12.60;99.90;;;;;;5093860;28;24052;-74
2023/07/31 13:15:22;;;;;;;;;;;12.60;99.90;;;;;;5093319;28;19908;-72
2023/07/31 13:17:48;;;;;;;;;;;12.70;99.90;;;;;;5092786;28;19907;-71
2023/07/31 13:20:15;;;;;;;;;;;12.80;99.90;;;;;;5093263;28;19915;-72
2023/07/31 13:22:42;;;;;;;;;;;12.70;99.90;;;;;;5093173;28;24110;-72
2023/07/31 13:25:08;;;;;;;;;;;12.60;99.90;;;;;;5092898;28;24077;-69
2023/07/31 13:27:35;;;;;;;;;;;12.40;99.90;;;;;;5093466;28;19915;-70
2023/07/31 13:30:02;;;;;;;;;;;12.20;99.90;;;;;;5092902;28;19923;-70
2023/07/31 13:32:29;;;;;;;;;;;12.10;99.90;;;;;;5093031;28;20413;-71
2023/07/31 13:34:56;;;;;;;;;;;11.90;99.90;;;;;;5093170;28;19907;-71
2023/07/31 13:37:23;;;;;;;;;;;11.80;99.90;;;;;;5093684;28;19969;-70
2023/07/31 13:39:49;;;;;;;;;;;11.70;99.90;;;;;;5093734;28;24131;-69
2023/07/31 13:42:16;;;;;;;;;;;11.60;99.90;;;;;;5093300;28;24074;-69
2023/07/31 13:44:43;;;;;;;;;;;11.50;99.90;;;;;;5093230;28;20045;-71
2023/07/31 13:47:09;;;;;;;;;;;11.40;99.90;;;;;;5092981;28;19927;-73
2023/07/31 13:49:36;;;;;;;;;;;11.30;99.90;;;;;;5093345;28;20011;-69
2023/07/31 13:52:03;;;;;;;;;;;11.20;99.90;;;;;;5093366;28;24064;-69
2023/07/31 13:54:30;;;;;;;;;;;11.10;99.90;;;;;;5092492;28;19911;-70
2023/07/31 13:56:57;;;;;;;;;;;11.10;99.90;;;;;;5092127;28;24053;-70
2023/07/31 13:59:23;;;;;;;;;;;11.00;99.90;;;;;;5093450;28;19908;-70
2023/07/31 14:01:50;;;;;;;;;;;11.00;99.90;;;;;;5093302;28;19967;-70
2023/07/31 14:04:17;;;;;;;;;;;10.90;99.90;;;;;;5092875;28;20586;-70
2023/07/31 14:06:44;;;;;;;;;;;10.90;99.90;;;;;;5092305;28;24132;-73
2023/07/31 14:09:11;;;;;;;;;;;10.90;99.90;;;;;;5074537;28;20313;-71
2023/07/31 14:11:37;;;;;;;;;;;10.90;99.90;;;;;;5092574;28;20005;-70
2023/07/31 14:14:04;;;;;;;;;;;10.80;99.90;;;;;;5092787;28;19911;-73
2023/07/31 14:16:31;;;;;;;;;;;10.80;99.90;;;;;;5091989;28;20451;-71
2023/07/31 14:18:58;;;;;;;;;;;10.90;99.90;;;;;;5092785;28;19915;-70
2023/07/31 14:21:26;;;;;;;;;;;11.00;99.90;;;;;;5092654;28;19904;-71
2023/07/31 14:23:53;;;;;;;;;;;11.00;99.90;;;;;;5093179;28;19904;-70